Terminal Aerodrome Forecast
Issued by NWS

Home | Current Version | Previous Version | Text Only | Print | Product List | Glossary On
Versions: 1 2 3 4 5 6 7 8 9 10 11 12 13 14 15 16 17 18 19 20 21 22 23 24 25
000
FTUS43 KAPX 271021 AAC
TAFTVC
TAF AMD
KTVC 271021Z 2710/2806 22007KT P6SM BKN025 WS020/23030KT
     FM271200 22009G18KT P6SM OVC022
     FM271700 23008KT 5SM -RADZ BR OVC015
     FM272200 28009KT P6SM SCT028 BKN040
     FM280200 00000KT P6SM SCT040 BKN060=

USA.gov is the U.S. government's official web portal to all federal, state and local government web resources and services.